Time;durP1;ratioP1;P1;durP2;ratioP2;P2;SDS_P1;SDS_P2;PMS_P1;PMS_P2;Temp;Humidity;BMP_temperature;BMP_pressure;BME280_temperature;BME280_humidity;BME280_pressure;Samples;Min_cycle;Max_cycle;Signal;HPM_P1;HPM_P2
2021/09/19 00:00:50;;;;;;;6.18;5.63;;;23.60;99.90;;;;;;5100490;28;20034;-70
2021/09/19 00:03:16;;;;;;;6.85;6.13;;;23.60;99.90;;;;;;5112866;28;20439;-70
2021/09/19 00:05:42;;;;;;;9.10;5.57;;;23.60;99.90;;;;;;5111991;28;20035;-69
2021/09/19 00:08:07;;;;;;;8.57;6.18;;;23.60;99.90;;;;;;5112098;28;20387;-70
2021/09/19 00:10:33;;;;;;;6.57;5.97;;;23.60;99.90;;;;;;5108909;28;20020;-70
2021/09/19 00:12:59;;;;;;;6.75;6.05;;;23.60;99.90;;;;;;5091865;28;20028;-71
2021/09/19 00:15:24;;;;;;;6.57;5.90;;;23.60;99.90;;;;;;5091564;28;20024;-70
2021/09/19 00:17:50;;;;;;;6.93;6.22;;;23.60;99.90;;;;;;5092537;28;20058;-71
2021/09/19 00:20:17;;;;;;;6.30;5.63;;;23.60;99.90;;;;;;5091979;28;20112;-70
2021/09/19 00:22:42;;;;;;;6.82;6.18;;;23.60;99.90;;;;;;5091703;28;20082;-70
2021/09/19 00:25:12;;;;;;;7.00;6.25;;;23.60;99.90;;;;;;5096639;28;20380;-71
2021/09/19 00:27:38;;;;;;;6.35;5.75;;;23.60;99.90;;;;;;5091713;28;20089;-70
2021/09/19 00:30:05;;;;;;;6.10;5.50;;;23.60;99.90;;;;;;5092202;28;20016;-70
2021/09/19 00:32:31;;;;;;;6.95;6.25;;;23.60;99.90;;;;;;5092304;28;20047;-70
2021/09/19 00:34:57;;;;;;;6.82;5.95;;;23.60;99.90;;;;;;5091488;28;20569;-70
2021/09/19 00:37:23;;;;;;;6.85;5.70;;;23.60;99.90;;;;;;5091861;28;20024;-68
2021/09/19 00:39:48;;;;;;;5.97;5.35;;;23.60;99.90;;;;;;5091465;28;20024;-69
2021/09/19 00:42:14;;;;;;;5.78;5.28;;;23.60;99.90;;;;;;5091550;28;20036;-68
2021/09/19 00:44:40;;;;;;;6.00;5.13;;;23.60;99.90;;;;;;5091184;28;20464;-68
2021/09/19 00:47:05;;;;;;;6.32;5.20;;;23.60;99.90;;;;;;5098766;28;20028;-68
2021/09/19 00:49:31;;;;;;;6.43;5.40;;;23.50;99.90;;;;;;5111812;28;20023;-68
2021/09/19 00:51:56;;;;;;;5.78;5.18;;;23.60;99.90;;;;;;5104711;28;20068;-68
2021/09/19 00:54:23;;;;;;;5.80;5.20;;;23.60;99.90;;;;;;5100416;28;20024;-68
2021/09/19 00:56:53;;;;;;;6.35;5.68;;;23.60;99.90;;;;;;5091145;28;20016;-68
2021/09/19 00:59:20;;;;;;;5.40;4.90;;;23.60;99.90;;;;;;5091418;28;20024;-68
2021/09/19 01:01:49;;;;;;;6.72;5.03;;;23.50;99.90;;;;;;5091161;28;20028;-67
2021/09/19 01:04:16;;;;;;;5.65;5.10;;;23.60;99.90;;;;;;5091422;28;20028;-67
2021/09/19 01:06:42;;;;;;;5.55;5.03;;;23.60;99.90;;;;;;5091275;28;20034;-69
2021/09/19 01:09:08;;;;;;;6.00;5.40;;;23.60;99.90;;;;;;5096426;28;20465;-68
2021/09/19 01:11:34;;;;;;;5.80;5.30;;;23.60;99.90;;;;;;5111908;28;20539;-68
2021/09/19 01:14:00;;;;;;;5.43;4.93;;;23.60;99.90;;;;;;5093953;28;20115;-68
2021/09/19 01:16:27;;;;;;;6.05;5.45;;;23.50;99.90;;;;;;5091153;28;20028;-68
2021/09/19 01:18:54;;;;;;;5.50;5.00;;;23.50;99.90;;;;;;5107413;28;20069;-69
2021/09/19 01:21:20;;;;;;;5.60;5.10;;;23.50;99.90;;;;;;5111091;28;20428;-69
2021/09/19 01:23:58;;;;;;;5.90;5.30;;;23.50;99.90;;;;;;5107770;28;20067;-69
2021/09/19 01:26:24;;;;;;;5.47;4.97;;;23.50;99.90;;;;;;5092502;28;20020;-68
2021/09/19 01:28:50;;;;;;;6.63;5.20;;;23.50;99.90;;;;;;5094814;28;20074;-68
2021/09/19 01:31:16;;;;;;;6.03;5.15;;;23.50;99.90;;;;;;5095325;28;20027;-68
2021/09/19 01:33:42;;;;;;;6.00;5.10;;;23.50;99.90;;;;;;5095113;28;20059;-68
2021/09/19 01:36:12;;;;;;;5.43;4.88;;;23.50;99.90;;;;;;5095434;28;20020;-68
2021/09/19 01:38:38;;;;;;;5.70;5.00;;;23.50;99.90;;;;;;5075090;28;20012;-68
2021/09/19 01:41:04;;;;;;;5.57;4.95;;;23.50;99.90;;;;;;5075052;28;20464;-68
2021/09/19 01:43:30;;;;;;;5.82;5.18;;;23.50;99.90;;;;;;5094874;28;20044;-68
2021/09/19 01:46:03;;;;;;;6.38;5.78;;;23.40;99.90;;;;;;5094750;28;20380;-68
2021/09/19 01:48:36;;;;;;;5.93;5.30;;;23.50;99.90;;;;;;5096125;28;20099;-69
2021/09/19 01:51:05;;;;;;;7.45;5.90;;;23.50;99.90;;;;;;5095200;28;20032;-69
2021/09/19 01:53:30;;;;;;;6.00;5.38;;;23.50;99.90;;;;;;5106659;28;20030;-67
2021/09/19 01:55:56;;;;;;;6.25;5.63;;;23.40;99.90;;;;;;5109823;28;20020;-68
2021/09/19 01:58:24;;;;;;;6.20;5.55;;;23.40;99.90;;;;;;5095312;28;20032;-67
2021/09/19 02:00:53;;;;;;;6.57;5.85;;;23.40;99.90;;;;;;5114338;28;20024;-67
2021/09/19 02:03:19;;;;;;;6.75;5.78;;;23.40;99.90;;;;;;5096754;28;20047;-68
2021/09/19 02:05:45;;;;;;;5.88;5.38;;;23.40;99.90;;;;;;5094460;28;20081;-67
2021/09/19 02:08:11;;;;;;;5.90;5.40;;;23.40;99.90;;;;;;5094607;28;20055;-68
2021/09/19 02:10:37;;;;;;;6.30;5.70;;;23.40;99.90;;;;;;5094334;28;20097;-67
2021/09/19 02:13:02;;;;;;;6.10;5.55;;;23.40;99.90;;;;;;5094945;28;20526;-69
2021/09/19 02:15:28;;;;;;;5.90;5.30;;;23.40;99.90;;;;;;5094417;28;20024;-68
2021/09/19 02:17:54;;;;;;;5.50;5.00;;;23.40;99.90;;;;;;5094324;28;20375;-67
2021/09/19 02:20:19;;;;;;;5.75;5.25;;;23.40;99.90;;;;;;5094430;28;20048;-68
2021/09/19 02:22:46;;;;;;;5.70;5.10;;;23.40;99.90;;;;;;5094082;28;20434;-69
2021/09/19 02:25:12;;;;;;;5.80;5.20;;;23.40;99.90;;;;;;5095014;28;20046;-68
2021/09/19 02:27:39;;;;;;;6.68;5.43;;;23.40;99.90;;;;;;5113713;28;20371;-68
2021/09/19 02:30:08;;;;;;;5.32;4.82;;;23.30;99.90;;;;;;5114569;28;20023;-70
2021/09/19 02:32:34;;;;;;;5.70;5.10;;;23.40;99.90;;;;;;5114212;28;20111;-69
2021/09/19 02:34:59;;;;;;;6.03;5.43;;;23.30;99.90;;;;;;5114243;28;20028;-69
2021/09/19 02:37:26;;;;;;;6.40;5.80;;;23.40;99.90;;;;;;5114521;28;20433;-67
2021/09/19 02:39:52;;;;;;;5.60;5.10;;;23.30;99.90;;;;;;5113251;28;20053;-68
2021/09/19 02:42:18;;;;;;;6.25;5.65;;;23.30;99.90;;;;;;5112151;28;20024;-68
2021/09/19 02:44:43;;;;;;;5.97;5.38;;;23.30;99.90;;;;;;5095773;28;20023;-69
2021/09/19 02:47:09;;;;;;;6.32;5.72;;;23.30;99.90;;;;;;5103757;28;20020;-69
2021/09/19 02:49:35;;;;;;;6.78;5.78;;;23.30;99.90;;;;;;5094179;28;20164;-69
2021/09/19 02:52:01;;;;;;;6.03;5.43;;;23.30;99.90;;;;;;5093730;28;20039;-69
2021/09/19 02:54:27;;;;;;;6.22;5.40;;;23.30;99.90;;;;;;5104785;28;20114;-69
2021/09/19 02:56:53;;;;;;;6.45;5.47;;;23.30;99.90;;;;;;5114003;28;20027;-69
2021/09/19 02:59:19;;;;;;;6.20;5.25;;;23.30;99.90;;;;;;5113704;28;20027;-69
2021/09/19 03:01:45;;;;;;;5.78;5.28;;;23.30;99.90;;;;;;5113242;28;20468;-68
2021/09/19 03:04:11;;;;;;;6.07;5.47;;;23.30;99.90;;;;;;5113962;28;20050;-68
2021/09/19 03:06:37;;;;;;;6.22;5.63;;;23.30;99.90;;;;;;5112942;28;20031;-68
2021/09/19 03:09:03;;;;;;;6.22;5.63;;;23.30;99.90;;;;;;5113670;28;20032;-68
2021/09/19 03:11:28;;;;;;;6.03;5.43;;;23.30;99.90;;;;;;5113796;28;20060;-69
2021/09/19 03:13:54;;;;;;;6.57;5.72;;;23.30;99.90;;;;;;5113560;28;20058;-69
2021/09/19 03:16:21;;;;;;;6.03;5.32;;;23.30;99.90;;;;;;5111863;28;20040;-67
2021/09/19 03:18:46;;;;;;;5.82;5.28;;;23.20;99.90;;;;;;5095546;28;20020;-67
2021/09/19 03:21:12;;;;;;;6.20;5.60;;;23.20;99.90;;;;;;5093190;28;20429;-67
2021/09/19 03:23:38;;;;;;;6.07;5.47;;;23.20;99.90;;;;;;5093082;28;20028;-66
2021/09/19 03:26:04;;;;;;;6.25;5.68;;;23.20;99.90;;;;;;5093426;28;20447;-68
2021/09/19 03:28:30;;;;;;;6.13;5.53;;;23.20;99.90;;;;;;5111993;28;20032;-67
2021/09/19 03:30:55;;;;;;;6.57;5.97;;;23.20;99.90;;;;;;5111392;28;20505;-67
2021/09/19 03:33:21;;;;;;;5.72;5.20;;;23.20;99.90;;;;;;5106800;28;20096;-68
2021/09/19 03:35:47;;;;;;;5.68;5.18;;;23.20;99.90;;;;;;5095488;28;20034;-67
2021/09/19 03:38:12;;;;;;;6.18;5.55;;;23.20;99.90;;;;;;5113339;28;20050;-67
2021/09/19 03:40:38;;;;;;;6.50;5.90;;;23.20;99.90;;;;;;5112740;28;20024;-68
2021/09/19 03:43:04;;;;;;;6.20;5.60;;;23.20;99.90;;;;;;5113476;28;20391;-67
2021/09/19 03:45:30;;;;;;;6.10;5.50;;;23.20;99.90;;;;;;5113052;28;20030;-69
2021/09/19 03:48:03;;;;;;;6.45;5.60;;;23.20;99.90;;;;;;5106056;28;20880;-67
2021/09/19 03:50:29;;;;;;;6.07;5.47;;;23.10;99.90;;;;;;5092489;28;20125;-70
2021/09/19 03:52:54;;;;;;;6.40;5.80;;;23.10;99.90;;;;;;5098169;28;20483;-69
2021/09/19 03:55:20;;;;;;;5.85;5.35;;;23.20;99.90;;;;;;5113296;28;20023;-68
2021/09/19 03:57:45;;;;;;;6.07;5.47;;;23.20;99.90;;;;;;5098273;28;20028;-69
2021/09/19 04:00:11;;;;;;;5.97;5.45;;;23.10;99.90;;;;;;5101419;28;20035;-68
2021/09/19 04:02:37;;;;;;;6.35;5.70;;;23.10;99.90;;;;;;5093808;28;20122;-67
2021/09/19 04:05:03;;;;;;;6.38;5.68;;;23.10;99.90;;;;;;5111168;28;20057;-67
2021/09/19 04:07:29;;;;;;;5.88;5.05;;;23.10;99.90;;;;;;5112436;28;20514;-68
2021/09/19 04:09:54;;;;;;;5.85;5.35;;;23.10;99.90;;;;;;5112474;28;20089;-68
2021/09/19 04:12:20;;;;;;;5.97;5.05;;;23.10;99.90;;;;;;5111996;28;20030;-68
2021/09/19 04:14:46;;;;;;;6.45;5.57;;;23.10;99.90;;;;;;5111962;28;20067;-69
2021/09/19 04:17:12;;;;;;;6.03;5.43;;;23.00;99.90;;;;;;5110413;28;20041;-69
2021/09/19 04:19:37;;;;;;;6.30;5.70;;;23.00;99.90;;;;;;5094085;28;20070;-68
2021/09/19 04:22:03;;;;;;;5.82;5.22;;;23.00;99.90;;;;;;5092346;28;20051;-69
2021/09/19 04:24:28;;;;;;;6.57;5.80;;;23.00;99.90;;;;;;5092081;28;20074;-70
2021/09/19 04:26:54;;;;;;;7.05;5.70;;;23.00;99.90;;;;;;5097356;28;20103;-70
2021/09/19 04:29:20;;;;;;;6.28;5.70;;;23.00;99.90;;;;;;5111937;28;20061;-69
2021/09/19 04:31:45;;;;;;;5.93;5.43;;;23.00;99.90;;;;;;5110168;28;20028;-70
2021/09/19 04:34:11;;;;;;;6.63;5.78;;;23.00;99.90;;;;;;5112315;28;20087;-69
2021/09/19 04:36:36;;;;;;;6.70;6.05;;;23.00;99.90;;;;;;5111712;28;20031;-69
2021/09/19 04:39:03;;;;;;;6.25;5.65;;;23.00;99.90;;;;;;5110351;28;20467;-67
2021/09/19 04:41:28;;;;;;;6.18;5.60;;;23.00;99.90;;;;;;5112186;28;20080;-66
2021/09/19 04:43:54;;;;;;;6.45;5.82;;;23.00;99.90;;;;;;5111059;28;20154;-67
2021/09/19 04:46:20;;;;;;;6.22;5.63;;;23.00;99.90;;;;;;5112372;28;20019;-67
2021/09/19 04:48:45;;;;;;;6.20;5.60;;;22.90;99.90;;;;;;5084244;28;20479;-68
2021/09/19 04:51:11;;;;;;;5.72;5.22;;;22.90;99.90;;;;;;5096427;28;20107;-67
2021/09/19 04:53:36;;;;;;;6.30;5.18;;;22.90;99.90;;;;;;5091485;28;20400;-68
2021/09/19 04:56:02;;;;;;;6.82;6.18;;;22.90;99.90;;;;;;5104723;28;20051;-67
2021/09/19 04:58:28;;;;;;;6.25;5.65;;;22.90;99.90;;;;;;5111955;28;20475;-68
2021/09/19 05:00:54;;;;;;;5.90;5.40;;;22.90;99.90;;;;;;5109839;28;20016;-66
2021/09/19 05:03:19;;;;;;;5.95;5.25;;;22.90;99.90;;;;;;5097187;28;20127;-67
2021/09/19 05:05:45;;;;;;;5.93;5.32;;;22.90;99.90;;;;;;5104788;28;20811;-68
2021/09/19 05:08:11;;;;;;;6.53;5.60;;;22.90;99.90;;;;;;5110633;28;20515;-66
2021/09/19 05:10:36;;;;;;;5.65;5.15;;;22.90;99.90;;;;;;5110778;28;20123;-67
2021/09/19 05:13:02;;;;;;;7.30;5.55;;;22.90;99.90;;;;;;5112248;28;20038;-67
2021/09/19 05:15:28;;;;;;;5.35;4.85;;;22.90;99.90;;;;;;5111746;28;20028;-67
2021/09/19 05:17:53;;;;;;;6.28;5.68;;;22.80;99.90;;;;;;5103620;28;20438;-67
2021/09/19 05:20:19;;;;;;;10.48;5.72;;;22.80;99.90;;;;;;5094169;28;20044;-67
2021/09/19 05:22:44;;;;;;;6.35;5.35;;;22.80;99.90;;;;;;5091024;28;20110;-67
2021/09/19 05:25:11;;;;;;;7.70;5.45;;;22.80;99.90;;;;;;5090319;28;20024;-67
2021/09/19 05:27:36;;;;;;;5.70;4.88;;;22.80;99.90;;;;;;5091127;28;20502;-66
2021/09/19 05:30:03;;;;;;;6.35;5.75;;;22.80;99.90;;;;;;5104372;28;20051;-67
2021/09/19 05:32:29;;;;;;;5.65;5.15;;;22.80;99.90;;;;;;5111584;28;20474;-66
2021/09/19 05:34:55;;;;;;;5.72;5.22;;;22.80;99.90;;;;;;5111094;28;20423;-67
2021/09/19 05:37:20;;;;;;;5.57;5.07;;;22.80;99.90;;;;;;5105815;28;20032;-67
2021/09/19 05:39:46;;;;;;;5.75;5.20;;;22.70;99.90;;;;;;5090978;28;20067;-68
2021/09/19 05:42:12;;;;;;;5.72;5.13;;;22.70;99.90;;;;;;5091150;28;20059;-69
2021/09/19 05:44:37;;;;;;;5.88;5.38;;;22.70;99.90;;;;;;5109796;28;20031;-69
2021/09/19 05:47:03;;;;;;;6.38;5.30;;;22.70;99.90;;;;;;5111031;28;20027;-68
2021/09/19 05:49:28;;;;;;;5.82;5.20;;;22.70;99.90;;;;;;5099584;28;20035;-67
2021/09/19 05:51:54;;;;;;;5.85;5.25;;;22.70;99.90;;;;;;5090707;28;20118;-68
2021/09/19 05:54:20;;;;;;;5.85;5.32;;;22.70;99.90;;;;;;5091038;28;20387;-67
2021/09/19 05:56:45;;;;;;;5.82;5.30;;;22.70;99.90;;;;;;5091001;28;20027;-68
2021/09/19 05:59:11;;;;;;;5.80;5.30;;;22.70;99.90;;;;;;5092249;28;20032;-68
2021/09/19 06:01:36;;;;;;;6.25;5.50;;;22.70;99.90;;;;;;5098453;28;20524;-66
2021/09/19 06:04:02;;;;;;;5.82;5.22;;;22.70;99.90;;;;;;5111613;28;20028;-67
2021/09/19 06:06:27;;;;;;;6.25;5.65;;;22.60;99.90;;;;;;5111417;28;20063;-69
2021/09/19 06:08:53;;;;;;;5.38;4.88;;;22.60;99.90;;;;;;5109343;28;20027;-68
2021/09/19 06:11:19;;;;;;;8.63;5.45;;;22.70;99.90;;;;;;5111191;28;20027;-68
2021/09/19 06:13:44;;;;;;;5.72;5.22;;;22.60;99.90;;;;;;5111428;28;20031;-68
2021/09/19 06:16:11;;;;;;;6.15;5.55;;;22.60;99.90;;;;;;5106054;28;20024;-66
2021/09/19 06:18:36;;;;;;;6.10;5.53;;;22.60;99.90;;;;;;5096451;28;20107;-67
2021/09/19 06:21:03;;;;;;;5.93;5.43;;;22.60;99.90;;;;;;5106026;28;20120;-66
2021/09/19 06:23:30;;;;;;;5.88;5.38;;;22.60;99.90;;;;;;5094305;28;20042;-67
2021/09/19 06:25:56;;;;;;;6.80;5.72;;;22.60;99.90;;;;;;5094260;28;20367;-67
2021/09/19 06:28:22;;;;;;;6.30;5.65;;;22.60;99.90;;;;;;5112047;28;20028;-66
2021/09/19 06:30:47;;;;;;;5.30;4.80;;;22.50;99.90;;;;;;5114653;28;20024;-67
2021/09/19 06:33:13;;;;;;;5.43;4.93;;;22.50;99.90;;;;;;5114300;28;20022;-66
2021/09/19 06:35:40;;;;;;;5.93;5.32;;;22.50;99.90;;;;;;5112850;28;20061;-66
2021/09/19 06:38:06;;;;;;;5.40;4.90;;;22.50;99.90;;;;;;5114750;28;20023;-66
2021/09/19 06:40:32;;;;;;;5.63;5.05;;;22.50;99.90;;;;;;5114913;28;20020;-67
2021/09/19 06:42:57;;;;;;;5.32;4.80;;;22.50;99.90;;;;;;5113996;28;20039;-66
2021/09/19 06:45:23;;;;;;;5.38;4.72;;;22.50;99.90;;;;;;5112652;28;20089;-67
2021/09/19 06:47:48;;;;;;;5.82;5.32;;;22.50;99.90;;;;;;5108233;28;20024;-67
2021/09/19 06:50:14;;;;;;;6.07;5.13;;;22.50;99.90;;;;;;5088946;28;20434;-66
2021/09/19 06:52:40;;;;;;;5.00;4.47;;;22.50;99.90;;;;;;5093932;28;20111;-66
2021/09/19 06:55:07;;;;;;;5.63;5.13;;;22.50;99.90;;;;;;5093994;28;20050;-66
2021/09/19 06:57:33;;;;;;;6.10;4.80;;;22.50;99.90;;;;;;5082739;28;20062;-67
2021/09/19 06:59:59;;;;;;;5.60;5.10;;;22.50;99.90;;;;;;5073102;28;20036;-67
2021/09/19 07:02:25;;;;;;;5.30;4.80;;;22.50;99.90;;;;;;5082861;28;20074;-68
2021/09/19 07:04:50;;;;;;;5.75;5.13;;;22.50;99.90;;;;;;5081317;28;20040;-69
2021/09/19 07:07:18;;;;;;;4.90;4.40;;;22.40;99.90;;;;;;5073416;28;20029;-67
2021/09/19 07:09:44;;;;;;;5.20;4.70;;;22.50;99.90;;;;;;5073005;28;20446;-67
2021/09/19 07:12:10;;;;;;;5.70;5.20;;;22.40;99.90;;;;;;5080100;28;20031;-67
2021/09/19 07:14:36;;;;;;;5.90;5.30;;;22.40;99.90;;;;;;5092939;28;20059;-68
2021/09/19 07:17:02;;;;;;;5.82;5.20;;;22.40;99.90;;;;;;5086728;28;20052;-67
2021/09/19 07:19:28;;;;;;;5.80;5.30;;;22.40;99.90;;;;;;5076495;28;20115;-68
2021/09/19 07:21:53;;;;;;;5.05;4.55;;;22.40;99.90;;;;;;5103488;28;20016;-68
2021/09/19 07:24:19;;;;;;;5.20;4.70;;;22.40;99.90;;;;;;5113602;28;20434;-69
2021/09/19 07:26:45;;;;;;;5.22;4.72;;;22.40;99.90;;;;;;5107314;28;20024;-66
2021/09/19 07:29:11;;;;;;;5.70;5.10;;;22.50;99.90;;;;;;5093220;28;20099;-67
2021/09/19 07:31:37;;;;;;;5.93;5.28;;;22.40;99.90;;;;;;5089867;28;20121;-66
2021/09/19 07:34:03;;;;;;;5.43;4.93;;;22.40;99.90;;;;;;5073293;28;20423;-67
2021/09/19 07:36:32;;;;;;;5.47;4.97;;;22.40;99.90;;;;;;5072877;28;20388;-67
2021/09/19 07:39:04;;;;;;;5.82;5.00;;;22.30;99.90;;;;;;5072786;28;20034;-67
2021/09/19 07:41:30;;;;;;;5.82;5.18;;;22.30;99.90;;;;;;5075382;28;20028;-66
2021/09/19 07:43:57;;;;;;;5.63;5.13;;;22.30;99.90;;;;;;5092014;28;20071;-66
2021/09/19 07:46:23;;;;;;;6.45;5.85;;;22.30;99.90;;;;;;5091538;28;20024;-65
2021/09/19 07:48:50;;;;;;;7.97;7.28;;;22.30;99.90;;;;;;5072893;28;20029;-65
2021/09/19 07:51:17;;;;;;;8.02;7.22;;;22.30;99.90;;;;;;5090446;28;20036;-66
2021/09/19 07:53:45;;;;;;;15.45;11.88;;;22.30;99.90;;;;;;5091239;28;20024;-65
2021/09/19 07:56:10;;;;;;;22.02;19.73;;;22.30;99.90;;;;;;5091332;28;20048;-67
2021/09/19 07:58:36;;;;;;;25.80;23.10;;;22.20;99.90;;;;;;5090147;28;20063;-66
2021/09/19 08:01:02;;;;;;;26.80;23.90;;;22.20;99.90;;;;;;5092081;28;20029;-66
2021/09/19 08:03:28;;;;;;;26.95;24.15;;;22.10;99.90;;;;;;5091799;28;20510;-66
2021/09/19 08:05:53;;;;;;;30.42;26.42;;;22.10;99.90;;;;;;5090885;28;20090;-66
2021/09/19 08:08:19;;;;;;;29.70;26.50;;;22.10;99.90;;;;;;5091209;28;20047;-67
2021/09/19 08:10:45;;;;;;;27.08;24.20;;;22.00;99.90;;;;;;5072871;28;20024;-66
2021/09/19 08:13:10;;;;;;;28.40;25.23;;;22.00;99.90;;;;;;5106642;28;20012;-67
2021/09/19 08:15:36;;;;;;;29.70;26.23;;;22.00;99.90;;;;;;5091910;28;20077;-65
2021/09/19 08:18:02;;;;;;;29.20;26.10;;;21.90;99.90;;;;;;5092744;28;20028;-66
2021/09/19 08:20:27;;;;;;;26.55;23.65;;;21.90;99.90;;;;;;5092277;28;20517;-69
2021/09/19 08:22:53;;;;;;;27.75;23.90;;;21.90;99.90;;;;;;5091945;28;20538;-65
2021/09/19 08:25:19;;;;;;;27.88;24.48;;;21.90;99.90;;;;;;5092161;28;20024;-66
2021/09/19 08:27:45;;;;;;;27.92;24.67;;;21.90;99.90;;;;;;5091634;28;20020;-66
2021/09/19 08:30:13;;;;;;;26.35;23.33;;;21.80;99.90;;;;;;5091832;28;20103;-66
2021/09/19 08:32:40;;;;;;;27.30;24.13;;;21.80;99.90;;;;;;5091340;28;20060;-65
2021/09/19 08:35:07;;;;;;;27.88;24.70;;;21.80;99.90;;;;;;5091950;28;20103;-65
2021/09/19 08:37:33;;;;;;;26.48;23.55;;;21.80;99.90;;;;;;5091310;28;20107;-66
2021/09/19 08:39:59;;;;;;;24.48;21.85;;;21.70;99.90;;;;;;5093108;28;20447;-65
2021/09/19 08:42:25;;;;;;;26.85;23.52;;;21.70;99.90;;;;;;5091290;28;20455;-66
2021/09/19 08:44:50;;;;;;;24.67;22.02;;;21.70;99.90;;;;;;5091606;28;20419;-65
2021/09/19 08:47:16;;;;;;;27.13;24.10;;;21.70;99.90;;;;;;5091026;28;20071;-65
2021/09/19 08:49:44;;;;;;;27.23;23.65;;;21.70;99.90;;;;;;5091461;28;20039;-66
2021/09/19 09:08:47;;;;;;;25.23;22.50;;;21.70;99.90;;;;;;5150357;27;20380;-64
2021/09/19 09:11:13;;;;;;;26.30;21.77;;;21.70;99.90;;;;;;5150829;27;20075;-65
2021/09/19 09:13:41;;;;;;;24.38;20.15;;;21.70;99.90;;;;;;5150106;27;20029;-64
2021/09/19 09:16:09;;;;;;;24.25;20.27;;;21.70;99.90;;;;;;5148414;27;20023;-66
2021/09/19 09:18:42;;;;;;;25.85;20.13;;;21.70;99.90;;;;;;5146737;27;20091;-66
2021/09/19 09:21:19;;;;;;;23.58;19.15;;;21.70;99.90;;;;;;5150249;27;20034;-64
2021/09/19 09:23:47;;;;;;;23.08;20.00;;;21.70;99.90;;;;;;5149954;27;20420;-64
2021/09/19 09:26:34;;;;;;;25.05;19.55;;;21.70;99.90;;;;;;5150502;27;20037;-66
2021/09/19 09:29:10;;;;;;;23.63;21.17;;;21.70;99.90;;;;;;5149829;27;20023;-65
2021/09/19 09:31:44;;;;;;;25.60;20.17;;;21.70;99.90;;;;;;5149419;27;20038;-64
2021/09/19 09:34:11;;;;;;;23.88;21.10;;;21.70;99.90;;;;;;5149903;27;20033;-65
2021/09/19 09:36:41;;;;;;;26.33;20.83;;;21.70;99.90;;;;;;5149865;27;20427;-66
2021/09/19 09:39:25;;;;;;;22.65;18.88;;;21.70;99.90;;;;;;5149612;27;20419;-65
2021/09/19 09:41:54;;;;;;;23.27;19.42;;;21.70;99.90;;;;;;5149511;27;20027;-66
2021/09/19 09:44:28;;;;;;;20.20;16.90;;;21.70;99.90;;;;;;5149046;27;20019;-66
2021/09/19 09:46:54;;;;;;;18.88;16.80;;;21.70;99.90;;;;;;5148973;27;20119;-66
2021/09/19 09:49:52;;;;;;;20.15;17.25;;;21.70;99.90;;;;;;5149404;27;20087;-66
2021/09/19 09:52:22;;;;;;;22.58;19.15;;;21.70;99.90;;;;;;5149260;27;20027;-64
2021/09/19 09:55:01;;;;;;;24.42;20.92;;;21.70;99.90;;;;;;5149487;27;20019;-65
2021/09/19 09:57:35;;;;;;;22.40;19.38;;;21.70;99.90;;;;;;5149697;27;20117;-65
2021/09/19 10:00:12;;;;;;;22.00;19.77;;;21.70;99.90;;;;;;5149015;27;20030;-65
2021/09/19 10:02:41;;;;;;;24.63;21.20;;;21.70;99.90;;;;;;5128461;27;20525;-65
2021/09/19 10:05:09;;;;;;;25.00;21.40;;;21.70;99.90;;;;;;5128725;27;20072;-64
2021/09/19 10:07:36;;;;;;;25.05;22.35;;;21.70;99.90;;;;;;5143978;27;20060;-65
2021/09/19 10:10:03;;;;;;;26.40;21.70;;;21.70;99.90;;;;;;5135205;27;20020;-65
2021/09/19 10:12:29;;;;;;;25.13;21.23;;;21.70;99.90;;;;;;5135400;27;20378;-65
2021/09/19 10:14:55;;;;;;;24.48;21.88;;;21.70;99.90;;;;;;5134909;27;20023;-65
2021/09/19 10:17:22;;;;;;;22.48;20.17;;;21.70;99.90;;;;;;5135002;27;20027;-65
2021/09/19 10:19:49;;;;;;;22.83;20.40;;;21.70;99.90;;;;;;5134668;27;20054;-65
2021/09/19 10:22:21;;;;;;;23.67;19.27;;;21.80;99.90;;;;;;5133211;27;20031;-65
2021/09/19 10:24:47;;;;;;;22.65;20.27;;;21.70;99.90;;;;;;5135369;27;20024;-65
2021/09/19 10:27:26;;;;;;;21.15;18.80;;;21.80;99.90;;;;;;5134994;27;20416;-65
2021/09/19 10:30:10;;;;;;;23.52;21.00;;;21.70;99.90;;;;;;5134464;27;20023;-65
2021/09/19 10:32:39;;;;;;;21.35;19.05;;;21.80;99.90;;;;;;5134796;27;20068;-65
2021/09/19 10:35:18;;;;;;;21.58;19.27;;;21.80;99.90;;;;;;5134672;27;20479;-64
2021/09/19 10:37:53;;;;;;;21.13;18.73;;;21.80;99.90;;;;;;5132207;27;20390;-65
2021/09/19 10:40:41;;;;;;;21.02;18.83;;;21.80;99.90;;;;;;5134374;27;20055;-65
2021/09/19 10:43:20;;;;;;;19.90;17.80;;;21.80;99.90;;;;;;5134270;27;20026;-64
2021/09/19 10:45:51;;;;;;;21.13;18.48;;;21.80;99.90;;;;;;5132238;27;20482;-64
2021/09/19 10:48:19;;;;;;;21.08;18.52;;;21.80;99.90;;;;;;5131073;27;20061;-64
2021/09/19 10:50:46;;;;;;;20.50;18.35;;;21.80;99.90;;;;;;5128683;27;20029;-65
2021/09/19 10:53:28;;;;;;;19.95;17.17;;;21.80;99.90;;;;;;5133697;27;20019;-65
2021/09/19 10:56:03;;;;;;;19.63;17.55;;;21.80;99.90;;;;;;5127767;27;20597;-65
2021/09/19 10:58:36;;;;;;;20.83;17.73;;;21.80;99.90;;;;;;5127122;27;20031;-65
2021/09/19 11:01:27;;;;;;;17.75;15.85;;;21.80;99.90;;;;;;5133036;27;20490;-65
2021/09/19 11:03:58;;;;;;;18.92;16.38;;;21.90;99.90;;;;;;5132132;27;20023;-65
2021/09/19 11:06:34;;;;;;;19.83;16.58;;;21.90;99.90;;;;;;5133289;27;20028;-65
2021/09/19 11:09:27;;;;;;;19.95;15.82;;;21.90;99.90;;;;;;5133339;27;20024;-65
2021/09/19 11:12:05;;;;;;;20.50;16.60;;;21.90;99.90;;;;;;5132557;27;20015;-64
2021/09/19 11:14:57;;;;;;;17.90;15.75;;;21.90;99.90;;;;;;5130602;27;20535;-65
2021/09/19 11:17:24;;;;;;;16.10;14.40;;;21.90;99.90;;;;;;5130592;27;20055;-66
2021/09/19 11:20:12;;;;;;;18.15;15.98;;;21.90;99.90;;;;;;5130784;27;20020;-66
2021/09/19 11:22:49;;;;;;;21.02;18.17;;;21.90;99.90;;;;;;5132458;27;20461;-65
2021/09/19 11:25:17;;;;;;;22.92;18.15;;;21.90;99.90;;;;;;5133732;27;20047;-66
2021/09/19 11:27:46;;;;;;;21.30;18.98;;;21.90;99.90;;;;;;5132688;27;20031;-65
2021/09/19 11:30:13;;;;;;;22.17;17.95;;;21.90;99.90;;;;;;5133095;27;20022;-65
2021/09/19 11:32:39;;;;;;;20.77;18.02;;;21.90;99.90;;;;;;5132985;27;20088;-65
2021/09/19 11:35:08;;;;;;;19.52;16.95;;;22.00;99.90;;;;;;5133200;27;20110;-66
2021/09/19 11:37:34;;;;;;;18.38;16.00;;;22.00;99.90;;;;;;5133319;27;20055;-65
2021/09/19 11:39:59;;;;;;;19.30;16.17;;;22.00;99.90;;;;;;5132565;27;20064;-68
2021/09/19 11:42:26;;;;;;;16.95;15.05;;;22.00;99.90;;;;;;5132991;27;20035;-67
2021/09/19 11:44:53;;;;;;;18.30;15.57;;;22.00;99.90;;;;;;5132612;27;20018;-65
2021/09/19 11:47:20;;;;;;;17.70;15.30;;;22.00;99.90;;;;;;5133205;27;20478;-67
2021/09/19 11:49:50;;;;;;;17.35;15.55;;;22.00;99.90;;;;;;5133187;27;20027;-66
2021/09/19 11:52:16;;;;;;;17.88;15.05;;;22.00;99.90;;;;;;5132926;27;20019;-65
2021/09/19 11:54:43;;;;;;;17.33;15.52;;;22.00;99.90;;;;;;5130396;27;20015;-67
2021/09/19 11:57:12;;;;;;;15.80;14.13;;;22.00;99.90;;;;;;5133260;27;20034;-67
2021/09/19 11:59:46;;;;;;;15.25;13.60;;;22.00;99.90;;;;;;5132873;27;20023;-67
2021/09/19 12:02:12;;;;;;;;;;;22.10;99.90;;;;;;5133579;27;20502;-67
2021/09/19 12:04:45;;;;;;;13.45;12.02;;;22.00;99.90;;;;;;5132768;27;19903;-68
2021/09/19 12:07:12;;;;;;;15.50;13.13;;;22.10;99.90;;;;;;5130127;27;20051;-67
2021/09/19 12:09:47;;;;;;;14.13;12.63;;;22.00;99.90;;;;;;5131093;27;20019;-67
2021/09/19 12:12:14;;;;;;;14.05;11.90;;;22.10;99.90;;;;;;5128818;27;20470;-67
2021/09/19 12:14:45;;;;;;;12.63;11.27;;;22.10;99.90;;;;;;5131316;27;20031;-66
2021/09/19 12:17:11;;;;;;;11.73;10.43;;;22.10;99.90;;;;;;5131517;27;20031;-68
2021/09/19 12:19:39;;;;;;;12.52;11.23;;;22.10;99.90;;;;;;5131208;27;20462;-67
2021/09/19 12:22:06;;;;;;;13.15;11.57;;;22.10;99.90;;;;;;5131455;27;20576;-68
2021/09/19 12:24:35;;;;;;;11.95;10.75;;;22.10;99.90;;;;;;5130059;27;20023;-68
2021/09/19 12:27:13;;;;;;;12.30;10.65;;;22.10;99.90;;;;;;5131051;27;20050;-68
2021/09/19 12:29:41;;;;;;;12.73;11.43;;;22.10;99.90;;;;;;5132312;27;20034;-68
2021/09/19 12:32:07;;;;;;;11.70;10.32;;;22.20;99.90;;;;;;5131588;27;20378;-67
2021/09/19 12:34:33;;;;;;;12.70;10.38;;;22.10;99.90;;;;;;5132096;27;20020;-66
2021/09/19 12:36:59;;;;;;;11.70;10.50;;;22.10;99.90;;;;;;5132463;27;20019;-66
2021/09/19 12:39:31;;;;;;;12.88;9.82;;;22.20;99.90;;;;;;5132757;27;20023;-67
2021/09/19 12:42:03;;;;;;;12.10;10.23;;;22.20;99.90;;;;;;5132476;27;20023;-66
2021/09/19 12:44:32;;;;;;;11.35;10.15;;;22.20;99.90;;;;;;5132687;27;20019;-68
2021/09/19 12:47:10;;;;;;;11.30;9.77;;;22.20;99.90;;;;;;5131859;27;20059;-68
2021/09/19 12:49:44;;;;;;;10.98;9.85;;;22.20;99.90;;;;;;5131434;27;20546;-66
2021/09/19 12:52:16;;;;;;;11.60;9.68;;;22.20;99.90;;;;;;5131464;27;20031;-67
2021/09/19 12:54:56;;;;;;;12.63;9.68;;;22.20;99.90;;;;;;5128339;28;20106;-67
2021/09/19 12:57:24;;;;;;;10.70;9.60;;;22.30;99.90;;;;;;5128607;28;20019;-67
2021/09/19 12:59:51;;;;;;;10.40;9.40;;;22.20;99.90;;;;;;5131087;27;20052;-67